Stoutsville, Missouri
Current Conditions -  °F | °C
As of 7:55 AM on Thursday 30 Oct 2014 (Local Time) from KHAE Reporting Station
Broken Clouds Broken Clouds  
Wind Chill: 39°   Ceiling: 10000
Heat Index: 43°   Visibility: 10mi
Dew Point: 34°   Wind: 6mph
Humidity: 70%   Direction: 160°SSE
Pressure: 30.1"   Gusts: NA
Location:  39.55°N, 91.86°W
Report Text: KHAE 301255Z AUTO 16005KT 10SM BKN100 06/01 A3010 RMK AO2
Loading
Personal Weather Stations






























Interactive Weather Map
Tropical Storm Tracking
New forecast layout! Learn more

10-Day Weather Forecast

Advertisements
Track Severe Weather on mobile